createdAt,value
2018-05-03T00:00:56.860Z,12.80
2018-05-03T00:03:24.301Z,12.80
2018-05-03T00:05:51.746Z,12.80
2018-05-03T00:08:19.259Z,12.80
2018-05-03T00:10:46.806Z,12.80
2018-05-03T00:13:14.644Z,12.70
2018-05-03T00:15:42.091Z,12.70
2018-05-03T00:18:09.538Z,12.70
2018-05-03T00:20:36.979Z,12.70
2018-05-03T00:23:04.468Z,12.70
2018-05-03T00:25:31.911Z,12.70
2018-05-03T00:27:59.440Z,12.70
2018-05-03T00:30:26.875Z,12.70
2018-05-03T00:32:54.308Z,12.70
2018-05-03T00:35:22.157Z,12.80
2018-05-03T00:37:49.594Z,12.70
2018-05-03T00:40:17.052Z,12.70
2018-05-03T00:42:44.500Z,12.70
2018-05-03T00:45:11.942Z,12.70
2018-05-03T00:47:39.395Z,12.70
2018-05-03T00:50:06.840Z,12.70
2018-05-03T00:52:34.287Z,12.70
2018-05-03T00:55:02.122Z,12.70
2018-05-03T00:57:29.566Z,12.70
2018-05-03T00:59:57.067Z,12.70
2018-05-03T01:02:24.526Z,12.70
2018-05-03T01:04:51.971Z,12.70
2018-05-03T01:07:19.816Z,12.70
2018-05-03T01:09:47.273Z,12.70
2018-05-03T01:12:14.754Z,12.70
2018-05-03T01:14:42.203Z,12.70
2018-05-03T01:17:10.043Z,12.80
2018-05-03T01:19:37.495Z,12.70
2018-05-03T01:22:04.947Z,12.70
2018-05-03T01:24:32.403Z,12.70
2018-05-03T01:26:59.842Z,12.70
2018-05-03T01:29:27.283Z,12.70
2018-05-03T01:31:54.735Z,12.80
2018-05-03T01:34:22.257Z,12.80
2018-05-03T01:36:50.151Z,12.80
2018-05-03T01:39:17.691Z,12.70
2018-05-03T01:41:45.552Z,12.80
2018-05-03T01:44:13.404Z,12.70
2018-05-03T01:46:40.844Z,12.70
2018-05-03T01:49:08.343Z,12.70
2018-05-03T01:51:35.779Z,12.80
2018-05-03T01:54:03.239Z,12.80
2018-05-03T01:56:31.085Z,12.80
2018-05-03T01:58:58.582Z,12.80
2018-05-03T02:01:26.037Z,12.80
2018-05-03T02:03:53.487Z,12.80
2018-05-03T02:06:21.331Z,12.80
2018-05-03T02:08:48.771Z,12.80
2018-05-03T02:11:16.222Z,12.80
2018-05-03T02:13:43.758Z,12.80
2018-05-03T02:16:11.203Z,12.80
2018-05-03T02:18:38.687Z,12.80
2018-05-03T02:21:06.146Z,12.80
2018-05-03T02:23:33.582Z,12.80
2018-05-03T02:26:01.091Z,12.80
2018-05-03T02:28:28.554Z,12.80
2018-05-03T02:30:56.004Z,12.80
2018-05-03T02:33:23.563Z,12.70
2018-05-03T02:35:51.396Z,12.70
2018-05-03T02:38:18.898Z,12.70
2018-05-03T02:40:46.376Z,12.70
2018-05-03T02:43:13.814Z,12.70
2018-05-03T02:45:41.259Z,12.70
2018-05-03T02:48:09.102Z,12.60
2018-05-03T02:50:36.600Z,12.60
2018-05-03T02:53:04.048Z,12.70
2018-05-03T02:55:31.905Z,12.70
2018-05-03T02:58:17.112Z,12.70
2018-05-03T03:01:02.186Z,12.70
2018-05-03T03:03:47.319Z,12.70
2018-05-03T03:06:32.820Z,12.60
2018-05-03T03:12:38.156Z,12.60
2018-05-03T03:15:23.555Z,12.60
2018-05-03T03:18:08.639Z,12.60
2018-05-03T03:21:06.712Z,12.60
2018-05-03T03:23:51.907Z,12.60
2018-05-03T03:26:49.942Z,12.50
2018-05-03T03:29:35.383Z,12.50
2018-05-03T03:32:14.634Z,12.50
2018-05-03T03:34:42.119Z,12.50
2018-05-03T03:37:32.334Z,12.50
2018-05-03T03:40:17.679Z,12.50
2018-05-03T03:43:14.929Z,12.50
2018-05-03T03:45:42.395Z,12.50
2018-05-03T03:48:09.836Z,12.50
2018-05-03T03:50:37.297Z,12.40
2018-05-03T03:53:04.755Z,12.50
2018-05-03T03:55:32.282Z,12.50
2018-05-03T03:57:59.741Z,12.50
2018-05-03T04:00:27.187Z,12.50
2018-05-03T04:02:54.626Z,12.50
2018-05-03T04:05:22.075Z,12.50
2018-05-03T04:07:49.532Z,12.50
2018-05-03T04:10:16.994Z,12.50
2018-05-03T04:12:44.447Z,12.50
2018-05-03T04:15:11.901Z,12.50
2018-05-03T04:17:51.175Z,12.50
2018-05-03T04:20:39.681Z,12.50
2018-05-03T04:23:19.040Z,12.50
2018-05-03T04:25:58.474Z,12.60
2018-05-03T04:28:25.926Z,12.60
2018-05-03T04:30:53.410Z,12.60
2018-05-03T04:33:21.264Z,12.60
2018-05-03T04:35:48.703Z,12.60
2018-05-03T04:38:16.181Z,12.60
2018-05-03T04:40:43.602Z,12.60
2018-05-03T04:43:11.090Z,12.60
2018-05-03T04:45:38.530Z,12.70
2018-05-03T04:48:05.984Z,12.70
2018-05-03T04:50:33.428Z,12.70
2018-05-03T04:53:00.878Z,12.70
2018-05-03T04:55:28.376Z,12.80
2018-05-03T04:57:55.827Z,12.80
2018-05-03T05:00:23.282Z,12.80
2018-05-03T05:02:50.725Z,12.90
2018-05-03T05:05:18.169Z,12.90
2018-05-03T05:07:45.662Z,12.90
2018-05-03T05:10:13.497Z,13.00
2018-05-03T05:12:40.954Z,13.00
2018-05-03T05:15:08.401Z,13.00
2018-05-03T05:17:35.843Z,13.00
2018-05-03T05:20:03.332Z,13.10
2018-05-03T05:22:30.783Z,13.10
2018-05-03T05:24:58.224Z,13.10
2018-05-03T05:27:25.675Z,13.10
2018-05-03T05:29:53.116Z,13.20
2018-05-03T05:32:20.611Z,13.20
2018-05-03T05:34:48.059Z,13.30
2018-05-03T05:37:15.500Z,13.30
2018-05-03T05:39:42.943Z,13.30
2018-05-03T05:42:10.382Z,13.40
2018-05-03T05:44:37.853Z,13.40
2018-05-03T05:47:05.294Z,13.40
2018-05-03T05:49:32.765Z,13.40
2018-05-03T05:52:00.202Z,13.40
2018-05-03T05:54:27.655Z,13.50
2018-05-03T05:56:55.127Z,13.50
2018-05-03T05:59:22.578Z,13.50
2018-05-03T06:01:50.028Z,13.60
2018-05-03T06:04:17.502Z,13.60
2018-05-03T06:06:45.313Z,13.60
2018-05-03T06:09:12.839Z,13.60
2018-05-03T06:11:40.291Z,13.60
2018-05-03T06:14:07.739Z,13.60
2018-05-03T06:16:35.194Z,13.60
2018-05-03T06:19:02.728Z,13.60
2018-05-03T06:21:30.235Z,13.60
2018-05-03T06:23:57.687Z,13.60
2018-05-03T06:26:25.136Z,13.70
2018-05-03T06:28:52.615Z,13.70
2018-05-03T06:31:20.096Z,13.70
2018-05-03T06:33:47.991Z,13.80
2018-05-03T06:36:15.451Z,13.80
2018-05-03T06:38:42.916Z,13.80
2018-05-03T06:41:10.405Z,13.90
2018-05-03T06:43:37.855Z,13.90
2018-05-03T06:46:05.354Z,13.80
2018-05-03T06:48:32.819Z,13.90
2018-05-03T06:51:00.671Z,13.90
2018-05-03T06:53:28.514Z,13.90
2018-05-03T06:55:55.963Z,13.90
2018-05-03T06:58:23.492Z,14.00
2018-05-03T07:00:50.944Z,14.00
2018-05-03T07:03:18.399Z,14.00
2018-05-03T07:05:45.842Z,14.00
2018-05-03T07:08:13.294Z,14.10
2018-05-03T07:10:40.811Z,14.10
2018-05-03T07:13:08.250Z,14.20
2018-05-03T07:15:35.712Z,14.20
2018-05-03T07:18:03.155Z,14.30
2018-05-03T07:20:30.613Z,14.30
2018-05-03T07:22:58.115Z,14.40
2018-05-03T07:25:25.955Z,14.50
2018-05-03T07:27:53.406Z,14.50
2018-05-03T07:30:20.855Z,14.50
2018-05-03T07:32:48.299Z,14.60
2018-05-03T07:35:15.808Z,14.70
2018-05-03T07:37:43.658Z,14.70
2018-05-03T07:40:11.119Z,14.70
2018-05-03T07:42:38.579Z,14.70
2018-05-03T07:45:06.028Z,14.80
2018-05-03T07:47:33.532Z,14.80
2018-05-03T07:50:00.986Z,14.90
2018-05-03T07:52:28.450Z,15.00
2018-05-03T07:54:55.900Z,15.00
2018-05-03T07:57:23.356Z,15.00
2018-05-03T07:59:50.854Z,15.10
2018-05-03T08:02:18.299Z,15.10
2018-05-03T08:04:45.847Z,15.10
2018-05-03T08:07:13.206Z,15.10
2018-05-03T08:09:40.672Z,15.20
2018-05-03T08:12:08.169Z,15.20
2018-05-03T08:14:35.625Z,15.30
2018-05-03T08:17:03.145Z,15.30
2018-05-03T08:19:30.505Z,15.30
2018-05-03T08:21:57.968Z,15.40
2018-05-03T08:24:25.455Z,15.40
2018-05-03T08:26:53.292Z,15.50
2018-05-03T08:29:20.743Z,15.50
2018-05-03T08:31:48.190Z,15.60
2018-05-03T08:34:15.636Z,15.60
2018-05-03T08:36:43.144Z,15.70
2018-05-03T08:39:10.973Z,15.80
2018-05-03T08:41:38.439Z,15.80
2018-05-03T08:44:06.136Z,15.80
2018-05-03T08:46:33.583Z,15.80
2018-05-03T08:49:01.480Z,16.00
2018-05-03T08:51:28.950Z,16.00
2018-05-03T08:53:56.411Z,16.10
2018-05-03T08:56:25.759Z,16.10
2018-05-03T08:58:53.610Z,16.30
2018-05-03T09:01:21.192Z,16.30
2018-05-03T09:03:48.571Z,16.30
2018-05-03T09:06:16.030Z,16.40
2018-05-03T09:08:43.487Z,16.40
2018-05-03T09:11:10.963Z,16.40
2018-05-03T09:13:38.483Z,16.30
2018-05-03T09:16:05.939Z,16.30
2018-05-03T09:18:33.387Z,16.30
2018-05-03T09:21:01.233Z,16.40
2018-05-03T09:23:28.678Z,16.40
2018-05-03T09:25:56.191Z,16.40
2018-05-03T09:28:23.631Z,16.50
2018-05-03T09:30:51.086Z,16.50
2018-05-03T09:33:18.540Z,16.50
2018-05-03T09:35:46.027Z,16.50
2018-05-03T09:38:13.527Z,16.50
2018-05-03T09:40:40.963Z,16.60
2018-05-03T09:43:08.426Z,16.60
2018-05-03T09:45:35.867Z,16.80
2018-05-03T09:48:03.302Z,17.20
2018-05-03T09:50:30.811Z,17.60
2018-05-03T09:52:58.245Z,18.00
2018-05-03T09:55:25.693Z,18.60
2018-05-03T09:57:53.140Z,19.20
2018-05-03T10:00:20.578Z,19.80
2018-05-03T10:02:48.075Z,20.20
2018-05-03T10:05:15.518Z,20.60
2018-05-03T10:07:42.958Z,20.90
2018-05-03T10:10:10.408Z,21.30
2018-05-03T10:12:37.851Z,21.40
2018-05-03T10:15:05.304Z,21.30
2018-05-03T10:17:32.762Z,21.10
2018-05-03T10:20:00.215Z,20.70
2018-05-03T10:22:27.673Z,20.40
2018-05-03T10:24:55.127Z,20.00
2018-05-03T10:27:22.680Z,19.70
2018-05-03T10:29:50.133Z,19.40
2018-05-03T10:32:17.575Z,19.20
2018-05-03T10:34:45.414Z,18.80
2018-05-03T10:37:12.881Z,18.80
2018-05-03T10:39:40.359Z,18.70
2018-05-03T10:42:08.220Z,18.60
2018-05-03T10:44:35.641Z,18.60
2018-05-03T10:47:03.087Z,18.60
2018-05-03T10:49:30.527Z,18.50
2018-05-03T10:51:58.030Z,18.50
2018-05-03T10:54:25.478Z,18.50
2018-05-03T10:56:52.918Z,18.50
2018-05-03T10:59:20.366Z,18.50
2018-05-03T11:01:47.807Z,18.60
2018-05-03T11:04:15.301Z,18.60
2018-05-03T11:06:42.747Z,18.70
2018-05-03T11:09:10.210Z,18.80
2018-05-03T11:11:37.663Z,18.80
2018-05-03T11:14:05.109Z,18.90
2018-05-03T11:16:32.611Z,18.90
2018-05-03T11:19:00.073Z,19.00
2018-05-03T11:21:27.950Z,19.00
2018-05-03T11:23:55.406Z,19.00
2018-05-03T11:26:22.847Z,19.00
2018-05-03T11:28:50.747Z,19.10
2018-05-03T11:31:18.210Z,19.10
2018-05-03T11:33:45.740Z,19.10
2018-05-03T11:36:13.178Z,19.20
2018-05-03T11:38:41.014Z,19.20
2018-05-03T11:41:08.530Z,19.20
2018-05-03T11:43:36.008Z,19.10
2018-05-03T11:46:03.478Z,19.20
2018-05-03T11:48:30.939Z,19.10
2018-05-03T11:50:58.396Z,19.20
2018-05-03T11:53:25.903Z,19.20
2018-05-03T11:55:53.342Z,19.20
2018-05-03T11:58:21.219Z,19.20
2018-05-03T12:00:49.070Z,19.20
2018-05-03T12:03:16.538Z,19.20
2018-05-03T12:05:44.051Z,19.20
2018-05-03T12:08:11.503Z,19.30
2018-05-03T12:10:38.947Z,19.40
2018-05-03T12:13:06.388Z,19.50
2018-05-03T12:15:33.863Z,19.50
2018-05-03T12:18:01.364Z,19.60
2018-05-03T12:20:29.203Z,19.60
2018-05-03T12:22:56.638Z,19.60
2018-05-03T12:25:24.092Z,19.60
2018-05-03T12:27:51.548Z,19.60
2018-05-03T12:30:19.067Z,19.60
2018-05-03T12:32:46.504Z,19.60
2018-05-03T12:35:13.951Z,19.60
2018-05-03T12:37:41.419Z,19.60
2018-05-03T12:43:09.143Z,19.70
2018-05-03T12:45:38.596Z,19.70
2018-05-03T12:48:12.981Z,19.80
2018-05-03T12:50:45.647Z,19.90
2018-05-03T13:10:39.378Z,20.20
2018-05-03T13:13:24.165Z,20.20
2018-05-03T13:15:53.820Z,20.30
2018-05-03T13:21:21.831Z,20.40
2018-05-03T13:23:49.728Z,20.40
2018-05-03T13:26:17.230Z,20.40
2018-05-03T13:28:44.791Z,20.50
2018-05-03T13:31:12.260Z,20.50
2018-05-03T13:33:39.732Z,20.50
2018-05-03T13:36:07.207Z,20.40
2018-05-03T13:38:34.661Z,20.30
2018-05-03T13:41:02.916Z,20.30
2018-05-03T13:43:30.369Z,20.30
2018-05-03T13:45:57.840Z,20.30
2018-05-03T13:48:25.307Z,20.30
2018-05-03T13:50:52.765Z,20.40
2018-05-03T13:53:20.298Z,20.40
2018-05-03T13:55:47.687Z,20.40
2018-05-03T13:58:15.203Z,20.50
2018-05-03T14:00:42.676Z,20.40
2018-05-03T14:03:10.127Z,20.40
2018-05-03T14:05:37.647Z,20.40
2018-05-03T14:08:05.092Z,20.50
2018-05-03T14:10:32.609Z,20.50
2018-05-03T14:13:00.551Z,20.60
2018-05-03T14:15:28.333Z,20.70
2018-05-03T14:17:56.181Z,20.80
2018-05-03T14:20:23.646Z,20.70
2018-05-03T14:22:51.208Z,20.80
2018-05-03T14:25:18.681Z,20.80
2018-05-03T14:27:46.152Z,20.60
2018-05-03T14:30:13.691Z,20.60
2018-05-03T14:32:41.156Z,20.60
2018-05-03T14:35:08.673Z,20.60
2018-05-03T14:37:36.203Z,20.60
2018-05-03T14:40:03.746Z,20.70
2018-05-03T14:42:31.309Z,20.70
2018-05-03T14:44:58.764Z,20.70
2018-05-03T14:47:26.279Z,20.80
2018-05-03T14:49:54.141Z,20.90
2018-05-03T14:52:22.000Z,21.00
2018-05-03T14:54:49.537Z,21.00
2018-05-03T14:57:17.017Z,21.00
2018-05-03T14:59:44.572Z,21.10
2018-05-03T15:02:12.035Z,21.10
2018-05-03T15:04:39.591Z,21.10
2018-05-03T15:07:07.169Z,21.10
2018-05-03T15:09:34.627Z,21.10
2018-05-03T15:12:02.139Z,21.10
2018-05-03T15:14:29.845Z,21.20
2018-05-03T15:16:57.302Z,21.20
2018-05-03T15:19:24.773Z,21.20
2018-05-03T15:21:52.255Z,21.20
2018-05-03T15:24:19.768Z,21.10
2018-05-03T15:26:47.217Z,21.10
2018-05-03T15:29:14.668Z,21.00
2018-05-03T15:31:42.189Z,21.00
2018-05-03T15:34:09.672Z,21.00
2018-05-03T15:36:37.224Z,20.90
2018-05-03T15:39:04.682Z,20.80
2018-05-03T15:41:32.137Z,20.70
2018-05-03T15:43:59.612Z,20.60
2018-05-03T15:46:27.076Z,20.50
2018-05-03T15:48:54.592Z,20.50
2018-05-03T15:51:22.053Z,20.50
2018-05-03T15:53:49.500Z,20.40
2018-05-03T15:56:17.033Z,20.40
2018-05-03T16:11:33.620Z,20.50
2018-05-03T16:14:01.077Z,20.50
2018-05-03T16:16:28.652Z,20.50
2018-05-03T16:18:56.101Z,20.50
2018-05-03T16:21:24.487Z,20.50
2018-05-03T16:23:51.967Z,20.50
2018-05-03T16:26:19.416Z,20.40
2018-05-03T16:28:46.868Z,20.40
2018-05-03T16:31:14.427Z,20.40
2018-05-03T16:33:41.888Z,20.30
2018-05-03T16:36:09.473Z,20.20
2018-05-03T16:38:36.928Z,20.20
2018-05-03T16:41:04.398Z,20.10
2018-05-03T16:43:31.863Z,20.10
2018-05-03T16:45:59.320Z,20.00
2018-05-03T16:48:26.877Z,20.00
2018-05-03T16:50:54.331Z,20.00
2018-05-03T16:53:21.789Z,20.00
2018-05-03T16:55:49.529Z,19.90
2018-05-03T16:58:16.996Z,19.90
2018-05-03T17:00:44.505Z,19.90
2018-05-03T17:03:11.964Z,19.90
2018-05-03T17:05:39.425Z,19.90
2018-05-03T17:08:06.876Z,19.90
2018-05-03T17:10:34.361Z,19.90
2018-05-03T17:13:01.836Z,19.80
2018-05-03T17:15:29.693Z,19.70
2018-05-03T17:17:57.235Z,19.80
2018-05-03T17:20:24.720Z,19.70
2018-05-03T17:22:52.229Z,19.70
2018-05-03T17:25:19.753Z,19.60
2018-05-03T17:27:47.419Z,19.60
2018-05-03T17:30:14.862Z,19.60
2018-05-03T17:32:42.331Z,19.50
2018-05-03T17:35:09.796Z,19.50
2018-05-03T17:37:37.359Z,19.50
2018-05-03T17:40:04.826Z,19.50
2018-05-03T17:42:32.276Z,19.50
2018-05-03T17:44:59.737Z,19.40
2018-05-03T17:47:27.220Z,19.40
2018-05-03T17:49:54.768Z,19.30
2018-05-03T17:52:22.240Z,19.30
2018-05-03T17:54:49.731Z,19.20
2018-05-03T17:57:17.588Z,19.20
2018-05-03T17:59:45.741Z,19.10
2018-05-03T18:02:13.275Z,19.10
2018-05-03T18:04:40.834Z,19.10
2018-05-03T18:07:08.353Z,19.00
2018-05-03T18:09:36.291Z,18.90
2018-05-03T18:12:03.868Z,18.90
2018-05-03T18:14:31.394Z,18.90
2018-05-03T18:16:58.903Z,18.90
2018-05-03T18:19:26.374Z,18.80
2018-05-03T18:21:53.859Z,18.80
2018-05-03T18:24:21.334Z,18.70
2018-05-03T18:26:48.946Z,18.70
2018-05-03T18:29:16.416Z,18.60
2018-05-03T18:31:43.875Z,18.60
2018-05-03T18:34:11.992Z,18.60
2018-05-03T18:36:39.379Z,18.50
2018-05-03T18:39:06.920Z,18.50
2018-05-03T18:41:34.453Z,18.40
2018-05-03T18:44:01.938Z,18.40
2018-05-03T18:46:29.520Z,18.30
2018-05-03T18:48:57.412Z,18.20
2018-05-03T18:51:24.917Z,18.20
2018-05-03T18:53:52.384Z,18.10
2018-05-03T18:56:20.352Z,18.00
2018-05-03T18:58:47.811Z,18.00
2018-05-03T19:01:15.378Z,18.00
2018-05-03T19:03:42.863Z,17.90
2018-05-03T19:06:10.324Z,17.90
2018-05-03T19:08:38.180Z,17.80
2018-05-03T19:11:06.127Z,17.70
2018-05-03T19:13:33.608Z,17.70
2018-05-03T19:16:01.530Z,17.60
2018-05-03T19:18:29.001Z,17.60
2018-05-03T19:20:56.470Z,17.50
2018-05-03T19:23:24.060Z,17.50
2018-05-03T19:25:51.544Z,17.50
2018-05-03T19:28:19.492Z,17.40
2018-05-03T19:30:46.969Z,17.40
2018-05-03T19:33:14.435Z,17.30
2018-05-03T19:35:42.304Z,17.20
2018-05-03T19:38:10.176Z,17.20
2018-05-03T19:40:37.686Z,17.20
2018-05-03T19:43:06.202Z,17.20
2018-05-03T19:45:34.174Z,17.20
2018-05-03T19:48:01.695Z,17.20
2018-05-03T19:50:29.169Z,17.10
2018-05-03T19:52:56.674Z,17.10
2018-05-03T19:55:24.151Z,17.20
2018-05-03T19:57:52.066Z,17.10
2018-05-03T20:00:19.746Z,17.10
2018-05-03T20:02:47.256Z,17.10
2018-05-03T20:05:15.311Z,17.10
2018-05-03T20:07:42.781Z,17.10
2018-05-03T20:10:10.252Z,17.10
2018-05-03T20:12:38.213Z,17.00
2018-05-03T20:15:05.676Z,17.00
2018-05-03T20:17:33.227Z,17.00
2018-05-03T20:20:00.805Z,17.00
2018-05-03T20:22:28.265Z,16.90
2018-05-03T20:24:56.603Z,16.90
2018-05-03T20:27:23.984Z,16.90
2018-05-03T20:29:51.503Z,16.80
2018-05-03T20:32:19.142Z,16.80
2018-05-03T20:34:46.695Z,16.70
2018-05-03T20:37:14.141Z,16.60
2018-05-03T20:39:41.834Z,16.60
2018-05-03T20:42:09.701Z,16.50
2018-05-03T20:44:37.193Z,16.50
2018-05-03T20:47:05.149Z,16.40
2018-05-03T20:49:32.682Z,16.40
2018-05-03T20:52:00.170Z,16.30
2018-05-03T20:54:27.721Z,16.20
2018-05-03T20:56:55.218Z,16.20
2018-05-03T20:59:23.077Z,16.00
2018-05-03T21:01:51.860Z,16.00
2018-05-03T21:04:19.396Z,16.00
2018-05-03T21:06:46.917Z,16.00
2018-05-03T21:09:14.782Z,16.00
2018-05-03T21:11:42.720Z,16.00
2018-05-03T21:14:10.184Z,16.00
2018-05-03T21:16:37.743Z,15.90
2018-05-03T21:19:05.307Z,15.90
2018-05-03T21:21:33.074Z,15.90
2018-05-03T21:24:00.710Z,15.90
2018-05-03T21:26:28.258Z,15.80
2018-05-03T21:28:55.878Z,15.80
2018-05-03T21:31:23.440Z,15.80
2018-05-03T21:33:50.903Z,15.80
2018-05-03T21:36:18.377Z,15.70
2018-05-03T21:38:45.934Z,15.70
2018-05-03T21:41:13.460Z,15.70
2018-05-03T21:43:41.050Z,15.60
2018-05-03T21:46:08.508Z,15.60
2018-05-03T21:48:35.961Z,15.60
2018-05-03T21:51:03.429Z,15.60
2018-05-03T21:53:31.709Z,15.50
2018-05-03T21:55:59.187Z,15.50
2018-05-03T21:58:26.760Z,15.50
2018-05-03T22:00:54.206Z,15.50
2018-05-03T22:03:21.658Z,15.50
2018-05-03T22:05:49.129Z,15.40
2018-05-03T22:08:16.700Z,15.40
2018-05-03T22:10:44.145Z,15.40
2018-05-03T22:13:11.611Z,15.30
2018-05-03T22:15:39.208Z,15.30
2018-05-03T22:18:07.072Z,15.20
2018-05-03T22:20:35.074Z,15.30
2018-05-03T22:23:02.919Z,15.20
2018-05-03T22:25:30.875Z,15.20
2018-05-03T22:27:58.357Z,15.20
2018-05-03T22:30:25.907Z,15.20
2018-05-03T22:32:53.453Z,15.20
2018-05-03T22:35:20.920Z,15.20
2018-05-03T22:37:48.363Z,15.20
2018-05-03T22:40:15.828Z,15.10
2018-05-03T22:42:43.280Z,15.10
2018-05-03T22:45:10.797Z,15.10
2018-05-03T22:47:38.239Z,15.10
2018-05-03T22:50:05.689Z,15.00
2018-05-03T22:52:33.149Z,15.00
2018-05-03T22:55:00.600Z,14.90
2018-05-03T22:57:28.097Z,14.90
2018-05-03T22:59:55.558Z,15.00
2018-05-03T23:02:23.016Z,14.90
2018-05-03T23:04:50.468Z,14.90
2018-05-03T23:07:17.930Z,14.90
2018-05-03T23:09:45.390Z,14.90
2018-05-03T23:12:13.819Z,14.90
2018-05-03T23:14:41.670Z,14.90
2018-05-03T23:17:09.631Z,14.80
2018-05-03T23:19:37.095Z,14.80
2018-05-03T23:22:04.620Z,14.70
2018-05-03T23:24:32.109Z,14.70
2018-05-03T23:26:59.684Z,14.70
2018-05-03T23:29:27.154Z,14.70
2018-05-03T23:31:54.627Z,14.70
2018-05-03T23:34:22.487Z,14.70
2018-05-03T23:36:49.942Z,14.70
2018-05-03T23:39:17.397Z,14.60
2018-05-03T23:41:44.966Z,14.60
2018-05-03T23:44:12.426Z,14.60
2018-05-03T23:46:39.928Z,14.60
2018-05-03T23:49:07.385Z,14.60
2018-05-03T23:51:34.836Z,14.60
2018-05-03T23:54:02.797Z,14.50
2018-05-03T23:56:30.344Z,14.50
2018-05-03T23:58:57.854Z,14.50
